3°C Temp
1°C Dewpoint
87% Humidity
Temperature
10 KM/H
6 MPH
5 KTS
200°
South South
West

Wind Speed
Clear
Conditions
Pressure 1047.92 (hPa) - 30.94 (in)
Visibility 6.2 (mi) - 10.0 (km)

Current Conditions
EGCN
Location 28(km)
Metar :EGCN 191850Z 20005KT CAVOK 03/01 Q1048
Sun 19th January 19:50 pm

Airport
  Metar Aviation API Data Provided by https://www.checkwx.com/ PHP scripts by weather34.com ©2020